sensor_id;sensor_type;location;lat;lon;timestamp;P1;durP1;ratioP1;P2;durP2;ratioP2
6193;SDS011;3130;41.564;23.280;2024-01-06T00:00:38;6.73;;;3.90;;
6193;SDS011;3130;41.564;23.280;2024-01-06T00:03:05;4.43;;;3.30;;
6193;SDS011;3130;41.564;23.280;2024-01-06T00:05:32;4.57;;;2.97;;
6193;SDS011;3130;41.564;23.280;2024-01-06T00:08:00;4.67;;;3.53;;
6193;SDS011;3130;41.564;23.280;2024-01-06T00:10:27;3.57;;;3.10;;
6193;SDS011;3130;41.564;23.280;2024-01-06T00:12:54;7.27;;;2.97;;
6193;SDS011;3130;41.564;23.280;2024-01-06T00:15:24;3.73;;;2.83;;
6193;SDS011;3130;41.564;23.280;2024-01-06T00:17:51;3.87;;;2.80;;
6193;SDS011;3130;41.564;23.280;2024-01-06T00:20:18;6.13;;;3.53;;
6193;SDS011;3130;41.564;23.280;2024-01-06T00:22:45;5.40;;;3.10;;
6193;SDS011;3130;41.564;23.280;2024-01-06T00:25:13;4.63;;;3.13;;
6193;SDS011;3130;41.564;23.280;2024-01-06T00:27:40;4.90;;;2.77;;
6193;SDS011;3130;41.564;23.280;2024-01-06T00:30:07;4.10;;;2.63;;
6193;SDS011;3130;41.564;23.280;2024-01-06T00:32:36;3.87;;;2.90;;
6193;SDS011;3130;41.564;23.280;2024-01-06T00:35:04;6.47;;;2.73;;
6193;SDS011;3130;41.564;23.280;2024-01-06T00:37:31;5.00;;;2.53;;
6193;SDS011;3130;41.564;23.280;2024-01-06T00:39:59;3.17;;;2.30;;
6193;SDS011;3130;41.564;23.280;2024-01-06T00:42:27;4.07;;;2.90;;
6193;SDS011;3130;41.564;23.280;2024-01-06T00:44:55;5.83;;;3.23;;
6193;SDS011;3130;41.564;23.280;2024-01-06T00:47:22;2.83;;;2.40;;
6193;SDS011;3130;41.564;23.280;2024-01-06T00:49:51;5.97;;;2.30;;
6193;SDS011;3130;41.564;23.280;2024-01-06T00:52:18;2.93;;;2.40;;
6193;SDS011;3130;41.564;23.280;2024-01-06T00:54:45;3.30;;;2.50;;
6193;SDS011;3130;41.564;23.280;2024-01-06T00:57:13;5.43;;;2.73;;
6193;SDS011;3130;41.564;23.280;2024-01-06T00:59:40;3.83;;;1.90;;
6193;SDS011;3130;41.564;23.280;2024-01-06T01:02:07;2.97;;;2.13;;
6193;SDS011;3130;41.564;23.280;2024-01-06T01:04:34;3.27;;;2.23;;
6193;SDS011;3130;41.564;23.280;2024-01-06T01:07:03;5.03;;;2.30;;
6193;SDS011;3130;41.564;23.280;2024-01-06T01:09:30;7.30;;;2.27;;
6193;SDS011;3130;41.564;23.280;2024-01-06T01:11:58;3.47;;;2.50;;
6193;SDS011;3130;41.564;23.280;2024-01-06T01:14:25;4.17;;;2.67;;
6193;SDS011;3130;41.564;23.280;2024-01-06T01:16:52;2.93;;;2.43;;
6193;SDS011;3130;41.564;23.280;2024-01-06T01:19:20;4.53;;;3.07;;
6193;SDS011;3130;41.564;23.280;2024-01-06T01:21:47;4.03;;;2.63;;
6193;SDS011;3130;41.564;23.280;2024-01-06T01:24:15;9.10;;;2.70;;
6193;SDS011;3130;41.564;23.280;2024-01-06T01:26:43;4.97;;;3.10;;
6193;SDS011;3130;41.564;23.280;2024-01-06T01:29:10;4.60;;;2.93;;
6193;SDS011;3130;41.564;23.280;2024-01-06T01:31:37;5.23;;;2.70;;
6193;SDS011;3130;41.564;23.280;2024-01-06T01:34:04;3.53;;;2.40;;
6193;SDS011;3130;41.564;23.280;2024-01-06T01:36:32;7.60;;;2.73;;
6193;SDS011;3130;41.564;23.280;2024-01-06T01:38:59;7.27;;;3.27;;
6193;SDS011;3130;41.564;23.280;2024-01-06T01:41:27;3.67;;;2.93;;
6193;SDS011;3130;41.564;23.280;2024-01-06T01:43:55;5.20;;;2.70;;
6193;SDS011;3130;41.564;23.280;2024-01-06T01:46:25;4.13;;;2.70;;
6193;SDS011;3130;41.564;23.280;2024-01-06T01:48:52;4.90;;;2.47;;
6193;SDS011;3130;41.564;23.280;2024-01-06T01:51:20;5.97;;;3.43;;
6193;SDS011;3130;41.564;23.280;2024-01-06T01:53:48;5.13;;;2.70;;
6193;SDS011;3130;41.564;23.280;2024-01-06T01:56:16;2.77;;;2.27;;
6193;SDS011;3130;41.564;23.280;2024-01-06T01:58:45;4.13;;;3.40;;
6193;SDS011;3130;41.564;23.280;2024-01-06T02:01:13;4.70;;;3.50;;
6193;SDS011;3130;41.564;23.280;2024-01-06T02:03:41;4.57;;;3.00;;
6193;SDS011;3130;41.564;23.280;2024-01-06T02:06:09;3.63;;;2.47;;
6193;SDS011;3130;41.564;23.280;2024-01-06T02:08:37;4.50;;;2.60;;
6193;SDS011;3130;41.564;23.280;2024-01-06T02:11:05;4.03;;;3.23;;
6193;SDS011;3130;41.564;23.280;2024-01-06T02:13:32;5.93;;;2.73;;
6193;SDS011;3130;41.564;23.280;2024-01-06T02:16:03;5.07;;;2.93;;
6193;SDS011;3130;41.564;23.280;2024-01-06T02:18:31;6.70;;;3.07;;
6193;SDS011;3130;41.564;23.280;2024-01-06T02:20:59;8.27;;;4.17;;
6193;SDS011;3130;41.564;23.280;2024-01-06T02:23:28;5.00;;;3.07;;
6193;SDS011;3130;41.564;23.280;2024-01-06T02:25:56;3.50;;;2.43;;
6193;SDS011;3130;41.564;23.280;2024-01-06T02:28:23;10.10;;;3.53;;
6193;SDS011;3130;41.564;23.280;2024-01-06T02:30:50;7.27;;;2.97;;
6193;SDS011;3130;41.564;23.280;2024-01-06T02:33:18;3.83;;;2.73;;
6193;SDS011;3130;41.564;23.280;2024-01-06T02:35:45;4.40;;;3.07;;
6193;SDS011;3130;41.564;23.280;2024-01-06T02:38:13;4.47;;;2.97;;
6193;SDS011;3130;41.564;23.280;2024-01-06T02:40:41;6.10;;;3.20;;
6193;SDS011;3130;41.564;23.280;2024-01-06T02:43:09;7.73;;;4.27;;
6193;SDS011;3130;41.564;23.280;2024-01-06T02:45:36;5.17;;;3.20;;
6193;SDS011;3130;41.564;23.280;2024-01-06T02:48:03;5.33;;;3.20;;
6193;SDS011;3130;41.564;23.280;2024-01-06T02:50:31;3.53;;;3.00;;
6193;SDS011;3130;41.564;23.280;2024-01-06T02:52:58;5.70;;;3.00;;
6193;SDS011;3130;41.564;23.280;2024-01-06T02:55:25;4.37;;;3.70;;
6193;SDS011;3130;41.564;23.280;2024-01-06T02:57:54;4.20;;;3.10;;
6193;SDS011;3130;41.564;23.280;2024-01-06T03:00:21;3.80;;;2.90;;
6193;SDS011;3130;41.564;23.280;2024-01-06T03:02:49;3.77;;;2.73;;
6193;SDS011;3130;41.564;23.280;2024-01-06T03:05:16;4.70;;;3.00;;
6193;SDS011;3130;41.564;23.280;2024-01-06T03:07:43;4.63;;;2.83;;
6193;SDS011;3130;41.564;23.280;2024-01-06T03:10:11;4.77;;;3.40;;
6193;SDS011;3130;41.564;23.280;2024-01-06T03:12:38;3.10;;;2.60;;
6193;SDS011;3130;41.564;23.280;2024-01-06T03:15:08;5.13;;;3.00;;
6193;SDS011;3130;41.564;23.280;2024-01-06T03:17:37;3.37;;;2.33;;
6193;SDS011;3130;41.564;23.280;2024-01-06T03:20:05;5.13;;;2.90;;
6193;SDS011;3130;41.564;23.280;2024-01-06T03:22:34;4.07;;;3.00;;
6193;SDS011;3130;41.564;23.280;2024-01-06T03:25:02;3.30;;;2.63;;
6193;SDS011;3130;41.564;23.280;2024-01-06T03:27:29;3.80;;;2.80;;
6193;SDS011;3130;41.564;23.280;2024-01-06T03:29:57;5.53;;;3.10;;
6193;SDS011;3130;41.564;23.280;2024-01-06T03:32:25;6.37;;;3.97;;
6193;SDS011;3130;41.564;23.280;2024-01-06T03:34:53;3.67;;;2.60;;
6193;SDS011;3130;41.564;23.280;2024-01-06T03:37:20;3.77;;;2.90;;
6193;SDS011;3130;41.564;23.280;2024-01-06T03:39:48;4.93;;;2.80;;
6193;SDS011;3130;41.564;23.280;2024-01-06T03:42:15;3.23;;;2.43;;
6193;SDS011;3130;41.564;23.280;2024-01-06T03:44:43;4.97;;;3.13;;
6193;SDS011;3130;41.564;23.280;2024-01-06T03:47:10;5.40;;;3.20;;
6193;SDS011;3130;41.564;23.280;2024-01-06T03:49:39;5.77;;;3.03;;
6193;SDS011;3130;41.564;23.280;2024-01-06T03:52:06;8.27;;;3.23;;
6193;SDS011;3130;41.564;23.280;2024-01-06T03:54:33;3.30;;;2.50;;
6193;SDS011;3130;41.564;23.280;2024-01-06T03:57:01;8.60;;;3.37;;
6193;SDS011;3130;41.564;23.280;2024-01-06T03:59:28;7.73;;;3.20;;
6193;SDS011;3130;41.564;23.280;2024-01-06T04:01:55;7.80;;;3.13;;
6193;SDS011;3130;41.564;23.280;2024-01-06T04:04:22;4.07;;;3.07;;
6193;SDS011;3130;41.564;23.280;2024-01-06T04:06:51;6.53;;;3.07;;
6193;SDS011;3130;41.564;23.280;2024-01-06T04:09:18;3.60;;;3.30;;
6193;SDS011;3130;41.564;23.280;2024-01-06T04:11:46;5.03;;;2.80;;
6193;SDS011;3130;41.564;23.280;2024-01-06T04:14:13;2.93;;;2.50;;
6193;SDS011;3130;41.564;23.280;2024-01-06T04:16:40;5.07;;;3.07;;
6193;SDS011;3130;41.564;23.280;2024-01-06T04:19:07;3.30;;;2.80;;
6193;SDS011;3130;41.564;23.280;2024-01-06T04:21:37;6.77;;;2.60;;
6193;SDS011;3130;41.564;23.280;2024-01-06T04:24:06;9.47;;;3.67;;
6193;SDS011;3130;41.564;23.280;2024-01-06T04:26:33;5.03;;;3.57;;
6193;SDS011;3130;41.564;23.280;2024-01-06T04:29:00;7.33;;;5.03;;
6193;SDS011;3130;41.564;23.280;2024-01-06T04:31:28;8.87;;;5.07;;
6193;SDS011;3130;41.564;23.280;2024-01-06T04:33:55;6.30;;;3.50;;
6193;SDS011;3130;41.564;23.280;2024-01-06T04:36:22;6.40;;;2.90;;
6193;SDS011;3130;41.564;23.280;2024-01-06T04:38:49;7.73;;;3.80;;
6193;SDS011;3130;41.564;23.280;2024-01-06T04:41:18;7.17;;;3.10;;
6193;SDS011;3130;41.564;23.280;2024-01-06T04:43:45;6.90;;;4.93;;
6193;SDS011;3130;41.564;23.280;2024-01-06T04:46:12;4.83;;;3.33;;
6193;SDS011;3130;41.564;23.280;2024-01-06T04:48:40;4.90;;;3.83;;
6193;SDS011;3130;41.564;23.280;2024-01-06T04:51:08;5.53;;;3.43;;
6193;SDS011;3130;41.564;23.280;2024-01-06T04:53:36;4.70;;;3.80;;
6193;SDS011;3130;41.564;23.280;2024-01-06T04:56:04;5.27;;;3.50;;
6193;SDS011;3130;41.564;23.280;2024-01-06T04:58:33;8.00;;;4.87;;
6193;SDS011;3130;41.564;23.280;2024-01-06T05:01:01;9.43;;;3.87;;
6193;SDS011;3130;41.564;23.280;2024-01-06T05:03:28;4.70;;;3.40;;
6193;SDS011;3130;41.564;23.280;2024-01-06T05:05:54;6.37;;;4.43;;
6193;SDS011;3130;41.564;23.280;2024-01-06T05:08:21;5.27;;;3.47;;
6193;SDS011;3130;41.564;23.280;2024-01-06T05:10:51;6.10;;;3.60;;
6193;SDS011;3130;41.564;23.280;2024-01-06T05:13:19;5.23;;;3.40;;
6193;SDS011;3130;41.564;23.280;2024-01-06T05:15:48;6.67;;;4.00;;
6193;SDS011;3130;41.564;23.280;2024-01-06T05:18:15;10.90;;;9.83;;
6193;SDS011;3130;41.564;23.280;2024-01-06T05:20:43;5.53;;;4.73;;
6193;SDS011;3130;41.564;23.280;2024-01-06T05:23:10;13.70;;;4.30;;
6193;SDS011;3130;41.564;23.280;2024-01-06T05:25:37;4.93;;;3.57;;
6193;SDS011;3130;41.564;23.280;2024-01-06T05:28:04;4.83;;;3.67;;
6193;SDS011;3130;41.564;23.280;2024-01-06T05:30:32;5.70;;;3.97;;
6193;SDS011;3130;41.564;23.280;2024-01-06T05:33:00;4.73;;;3.80;;
6193;SDS011;3130;41.564;23.280;2024-01-06T05:35:28;4.83;;;3.53;;
6193;SDS011;3130;41.564;23.280;2024-01-06T05:37:55;7.40;;;3.70;;
6193;SDS011;3130;41.564;23.280;2024-01-06T05:40:22;5.80;;;3.67;;
6193;SDS011;3130;41.564;23.280;2024-01-06T05:42:49;8.00;;;3.50;;
6193;SDS011;3130;41.564;23.280;2024-01-06T05:45:20;8.03;;;3.77;;
6193;SDS011;3130;41.564;23.280;2024-01-06T05:47:48;7.17;;;4.03;;
6193;SDS011;3130;41.564;23.280;2024-01-06T05:50:16;6.77;;;4.23;;
6193;SDS011;3130;41.564;23.280;2024-01-06T05:52:44;8.17;;;5.40;;
6193;SDS011;3130;41.564;23.280;2024-01-06T05:55:14;4.27;;;3.43;;
6193;SDS011;3130;41.564;23.280;2024-01-06T05:57:41;7.73;;;4.20;;
6193;SDS011;3130;41.564;23.280;2024-01-06T06:00:09;8.40;;;3.83;;
6193;SDS011;3130;41.564;23.280;2024-01-06T06:02:37;8.07;;;3.67;;
6193;SDS011;3130;41.564;23.280;2024-01-06T06:05:05;7.37;;;3.63;;
6193;SDS011;3130;41.564;23.280;2024-01-06T06:07:34;5.90;;;3.90;;
6193;SDS011;3130;41.564;23.280;2024-01-06T06:10:05;3.83;;;3.10;;
6193;SDS011;3130;41.564;23.280;2024-01-06T06:12:33;5.20;;;3.43;;
6193;SDS011;3130;41.564;23.280;2024-01-06T06:15:01;5.90;;;3.57;;
6193;SDS011;3130;41.564;23.280;2024-01-06T06:17:29;4.80;;;4.00;;
6193;SDS011;3130;41.564;23.280;2024-01-06T06:19:56;5.47;;;2.93;;
6193;SDS011;3130;41.564;23.280;2024-01-06T06:22:24;7.07;;;3.97;;
6193;SDS011;3130;41.564;23.280;2024-01-06T06:24:56;7.00;;;3.43;;
6193;SDS011;3130;41.564;23.280;2024-01-06T06:27:24;9.83;;;6.70;;
6193;SDS011;3130;41.564;23.280;2024-01-06T06:29:52;10.03;;;6.30;;
6193;SDS011;3130;41.564;23.280;2024-01-06T06:32:19;7.67;;;4.57;;
6193;SDS011;3130;41.564;23.280;2024-01-06T06:34:46;8.23;;;4.10;;
6193;SDS011;3130;41.564;23.280;2024-01-06T06:37:14;7.20;;;3.90;;
6193;SDS011;3130;41.564;23.280;2024-01-06T06:39:41;12.77;;;9.43;;
6193;SDS011;3130;41.564;23.280;2024-01-06T06:42:11;8.23;;;4.17;;
6193;SDS011;3130;41.564;23.280;2024-01-06T06:44:38;4.23;;;3.77;;
6193;SDS011;3130;41.564;23.280;2024-01-06T06:47:06;5.60;;;4.23;;
6193;SDS011;3130;41.564;23.280;2024-01-06T06:49:33;6.97;;;4.67;;
6193;SDS011;3130;41.564;23.280;2024-01-06T06:52:00;8.23;;;4.43;;
6193;SDS011;3130;41.564;23.280;2024-01-06T06:54:28;15.80;;;4.33;;
6193;SDS011;3130;41.564;23.280;2024-01-06T06:56:56;9.73;;;6.13;;
6193;SDS011;3130;41.564;23.280;2024-01-06T06:59:24;13.10;;;7.70;;
6193;SDS011;3130;41.564;23.280;2024-01-06T07:01:52;10.90;;;6.23;;
6193;SDS011;3130;41.564;23.280;2024-01-06T07:04:19;8.87;;;6.53;;
6193;SDS011;3130;41.564;23.280;2024-01-06T07:06:48;7.67;;;5.40;;
6193;SDS011;3130;41.564;23.280;2024-01-06T07:09:15;8.47;;;4.87;;
6193;SDS011;3130;41.564;23.280;2024-01-06T07:11:42;10.57;;;5.23;;
6193;SDS011;3130;41.564;23.280;2024-01-06T07:14:10;7.80;;;5.90;;
6193;SDS011;3130;41.564;23.280;2024-01-06T07:16:37;15.80;;;7.20;;
6193;SDS011;3130;41.564;23.280;2024-01-06T07:19:05;17.10;;;9.67;;
6193;SDS011;3130;41.564;23.280;2024-01-06T07:21:32;9.43;;;5.93;;
6193;SDS011;3130;41.564;23.280;2024-01-06T07:23:59;9.47;;;6.50;;
6193;SDS011;3130;41.564;23.280;2024-01-06T07:26:27;15.57;;;8.47;;
6193;SDS011;3130;41.564;23.280;2024-01-06T07:28:54;12.20;;;8.20;;
6193;SDS011;3130;41.564;23.280;2024-01-06T07:31:22;9.73;;;7.57;;
6193;SDS011;3130;41.564;23.280;2024-01-06T07:33:51;13.97;;;8.23;;
6193;SDS011;3130;41.564;23.280;2024-01-06T07:36:18;10.20;;;6.77;;
6193;SDS011;3130;41.564;23.280;2024-01-06T07:38:46;11.83;;;8.33;;
6193;SDS011;3130;41.564;23.280;2024-01-06T07:41:14;12.67;;;7.93;;
6193;SDS011;3130;41.564;23.280;2024-01-06T07:43:41;11.97;;;7.47;;
6193;SDS011;3130;41.564;23.280;2024-01-06T07:46:08;15.00;;;7.57;;
6193;SDS011;3130;41.564;23.280;2024-01-06T07:48:36;14.10;;;9.83;;
6193;SDS011;3130;41.564;23.280;2024-01-06T07:51:04;20.00;;;11.43;;
6193;SDS011;3130;41.564;23.280;2024-01-06T07:53:32;23.80;;;12.90;;
6193;SDS011;3130;41.564;23.280;2024-01-06T07:55:59;15.80;;;11.30;;
6193;SDS011;3130;41.564;23.280;2024-01-06T07:58:27;21.10;;;13.97;;
6193;SDS011;3130;41.564;23.280;2024-01-06T08:00:54;23.20;;;14.33;;
6193;SDS011;3130;41.564;23.280;2024-01-06T08:03:21;20.47;;;13.83;;
6193;SDS011;3130;41.564;23.280;2024-01-06T08:05:48;14.37;;;10.03;;
6193;SDS011;3130;41.564;23.280;2024-01-06T08:08:17;16.83;;;10.57;;
6193;SDS011;3130;41.564;23.280;2024-01-06T08:10:44;17.50;;;12.17;;
6193;SDS011;3130;41.564;23.280;2024-01-06T08:13:11;24.83;;;13.50;;
6193;SDS011;3130;41.564;23.280;2024-01-06T08:15:39;23.93;;;13.93;;
6193;SDS011;3130;41.564;23.280;2024-01-06T08:18:06;16.93;;;12.53;;
6193;SDS011;3130;41.564;23.280;2024-01-06T08:20:33;19.13;;;12.47;;
6193;SDS011;3130;41.564;23.280;2024-01-06T08:23:01;23.87;;;13.73;;
6193;SDS011;3130;41.564;23.280;2024-01-06T08:25:29;16.57;;;12.63;;
6193;SDS011;3130;41.564;23.280;2024-01-06T08:27:57;21.30;;;14.27;;
6193;SDS011;3130;41.564;23.280;2024-01-06T08:30:24;21.47;;;14.83;;
6193;SDS011;3130;41.564;23.280;2024-01-06T08:32:51;23.33;;;15.87;;
6193;SDS011;3130;41.564;23.280;2024-01-06T08:35:18;27.63;;;16.40;;
6193;SDS011;3130;41.564;23.280;2024-01-06T08:37:46;26.53;;;16.63;;
6193;SDS011;3130;41.564;23.280;2024-01-06T08:40:13;23.70;;;16.17;;
6193;SDS011;3130;41.564;23.280;2024-01-06T08:42:42;21.33;;;14.97;;
6193;SDS011;3130;41.564;23.280;2024-01-06T08:45:09;33.00;;;15.90;;
6193;SDS011;3130;41.564;23.280;2024-01-06T08:47:37;27.70;;;16.47;;
6193;SDS011;3130;41.564;23.280;2024-01-06T08:50:05;43.07;;;23.47;;
6193;SDS011;3130;41.564;23.280;2024-01-06T08:52:34;43.50;;;23.73;;
6193;SDS011;3130;41.564;23.280;2024-01-06T08:55:01;39.67;;;22.30;;
6193;SDS011;3130;41.564;23.280;2024-01-06T08:57:29;38.57;;;24.13;;
6193;SDS011;3130;41.564;23.280;2024-01-06T08:59:58;40.70;;;22.90;;
6193;SDS011;3130;41.564;23.280;2024-01-06T09:02:25;34.17;;;22.03;;
6193;SDS011;3130;41.564;23.280;2024-01-06T09:04:52;40.67;;;25.27;;
6193;SDS011;3130;41.564;23.280;2024-01-06T09:07:19;42.97;;;27.97;;
6193;SDS011;3130;41.564;23.280;2024-01-06T09:09:47;60.10;;;36.93;;
6193;SDS011;3130;41.564;23.280;2024-01-06T09:12:14;64.47;;;41.57;;
6193;SDS011;3130;41.564;23.280;2024-01-06T09:14:41;76.67;;;48.77;;
6193;SDS011;3130;41.564;23.280;2024-01-06T09:17:10;84.13;;;54.20;;
6193;SDS011;3130;41.564;23.280;2024-01-06T09:19:38;82.17;;;55.20;;
6193;SDS011;3130;41.564;23.280;2024-01-06T09:22:05;77.63;;;50.40;;
6193;SDS011;3130;41.564;23.280;2024-01-06T09:24:33;82.60;;;53.80;;
6193;SDS011;3130;41.564;23.280;2024-01-06T09:27:00;63.60;;;45.13;;
6193;SDS011;3130;41.564;23.280;2024-01-06T09:29:28;65.23;;;45.17;;
6193;SDS011;3130;41.564;23.280;2024-01-06T09:31:55;63.33;;;41.37;;
6193;SDS011;3130;41.564;23.280;2024-01-06T09:34:24;52.87;;;37.87;;
6193;SDS011;3130;41.564;23.280;2024-01-06T09:36:51;46.40;;;35.90;;
6193;SDS011;3130;41.564;23.280;2024-01-06T09:39:19;45.47;;;33.20;;
6193;SDS011;3130;41.564;23.280;2024-01-06T09:41:46;38.13;;;25.03;;
6193;SDS011;3130;41.564;23.280;2024-01-06T09:44:13;34.67;;;24.77;;
6193;SDS011;3130;41.564;23.280;2024-01-06T09:46:41;32.67;;;22.90;;
6193;SDS011;3130;41.564;23.280;2024-01-06T09:49:09;31.03;;;22.17;;
6193;SDS011;3130;41.564;23.280;2024-01-06T09:51:40;28.00;;;20.43;;
6193;SDS011;3130;41.564;23.280;2024-01-06T09:54:08;31.47;;;21.47;;
6193;SDS011;3130;41.564;23.280;2024-01-06T09:56:38;29.37;;;21.20;;
6193;SDS011;3130;41.564;23.280;2024-01-06T09:59:06;30.27;;;21.70;;
6193;SDS011;3130;41.564;23.280;2024-01-06T10:01:34;31.90;;;22.80;;
6193;SDS011;3130;41.564;23.280;2024-01-06T10:04:01;33.17;;;23.40;;
6193;SDS011;3130;41.564;23.280;2024-01-06T10:06:28;35.00;;;25.30;;
6193;SDS011;3130;41.564;23.280;2024-01-06T10:08:57;41.07;;;26.17;;
6193;SDS011;3130;41.564;23.280;2024-01-06T10:11:24;49.63;;;29.83;;
6193;SDS011;3130;41.564;23.280;2024-01-06T10:13:52;41.27;;;28.63;;
6193;SDS011;3130;41.564;23.280;2024-01-06T10:16:20;38.73;;;27.20;;
6193;SDS011;3130;41.564;23.280;2024-01-06T10:18:47;40.00;;;26.27;;
6193;SDS011;3130;41.564;23.280;2024-01-06T10:21:15;41.23;;;25.77;;
6193;SDS011;3130;41.564;23.280;2024-01-06T10:23:45;31.47;;;20.63;;
6193;SDS011;3130;41.564;23.280;2024-01-06T10:26:15;38.90;;;24.10;;
6193;SDS011;3130;41.564;23.280;2024-01-06T10:28:43;45.13;;;29.33;;
6193;SDS011;3130;41.564;23.280;2024-01-06T10:31:10;64.00;;;38.97;;
6193;SDS011;3130;41.564;23.280;2024-01-06T10:33:37;44.87;;;28.87;;
6193;SDS011;3130;41.564;23.280;2024-01-06T10:36:06;41.33;;;27.57;;
6193;SDS011;3130;41.564;23.280;2024-01-06T10:38:35;44.67;;;26.23;;
6193;SDS011;3130;41.564;23.280;2024-01-06T10:41:03;42.43;;;29.40;;
6193;SDS011;3130;41.564;23.280;2024-01-06T10:43:34;43.23;;;27.87;;
6193;SDS011;3130;41.564;23.280;2024-01-06T10:46:05;54.83;;;34.60;;
6193;SDS011;3130;41.564;23.280;2024-01-06T10:48:36;44.37;;;28.00;;
6193;SDS011;3130;41.564;23.280;2024-01-06T10:51:07;52.83;;;29.33;;
6193;SDS011;3130;41.564;23.280;2024-01-06T10:53:36;56.40;;;31.53;;
6193;SDS011;3130;41.564;23.280;2024-01-06T10:56:04;42.37;;;29.90;;
6193;SDS011;3130;41.564;23.280;2024-01-06T10:58:34;41.77;;;27.73;;
6193;SDS011;3130;41.564;23.280;2024-01-06T11:01:08;44.20;;;29.40;;
6193;SDS011;3130;41.564;23.280;2024-01-06T11:03:36;47.17;;;29.13;;
6193;SDS011;3130;41.564;23.280;2024-01-06T11:06:04;73.77;;;43.43;;
6193;SDS011;3130;41.564;23.280;2024-01-06T11:08:36;97.80;;;52.93;;
6193;SDS011;3130;41.564;23.280;2024-01-06T11:11:14;75.20;;;46.00;;
6193;SDS011;3130;41.564;23.280;2024-01-06T11:13:44;74.63;;;46.70;;
6193;SDS011;3130;41.564;23.280;2024-01-06T11:16:12;67.00;;;41.27;;
6193;SDS011;3130;41.564;23.280;2024-01-06T11:19:02;57.33;;;36.80;;
6193;SDS011;3130;41.564;23.280;2024-01-06T11:21:50;69.80;;;39.80;;
6193;SDS011;3130;41.564;23.280;2024-01-06T11:24:18;63.03;;;37.93;;
6193;SDS011;3130;41.564;23.280;2024-01-06T11:26:50;74.60;;;43.83;;
6193;SDS011;3130;41.564;23.280;2024-01-06T11:29:19;60.57;;;35.40;;
6193;SDS011;3130;41.564;23.280;2024-01-06T11:34:49;25.70;;;16.70;;
6193;SDS011;3130;41.564;23.280;2024-01-06T11:37:24;21.13;;;13.00;;
6193;SDS011;3130;41.564;23.280;2024-01-06T11:40:01;15.33;;;10.73;;
6193;SDS011;3130;41.564;23.280;2024-01-06T11:42:32;16.63;;;11.20;;
6193;SDS011;3130;41.564;23.280;2024-01-06T11:45:05;16.57;;;11.43;;
6193;SDS011;3130;41.564;23.280;2024-01-06T11:47:33;9.00;;;6.23;;
6193;SDS011;3130;41.564;23.280;2024-01-06T11:50:01;7.30;;;5.57;;
6193;SDS011;3130;41.564;23.280;2024-01-06T11:52:30;20.63;;;13.40;;
6193;SDS011;3130;41.564;23.280;2024-01-06T11:54:58;8.77;;;5.93;;
6193;SDS011;3130;41.564;23.280;2024-01-06T11:57:26;15.13;;;8.80;;
6193;SDS011;3130;41.564;23.280;2024-01-06T11:59:54;11.83;;;8.10;;
6193;SDS011;3130;41.564;23.280;2024-01-06T12:02:23;15.50;;;10.63;;
6193;SDS011;3130;41.564;23.280;2024-01-06T12:04:51;12.67;;;9.57;;
6193;SDS011;3130;41.564;23.280;2024-01-06T12:07:19;17.03;;;12.67;;
6193;SDS011;3130;41.564;23.280;2024-01-06T12:09:47;22.97;;;15.27;;
6193;SDS011;3130;41.564;23.280;2024-01-06T12:12:15;30.23;;;20.50;;
6193;SDS011;3130;41.564;23.280;2024-01-06T12:14:43;27.60;;;20.70;;
6193;SDS011;3130;41.564;23.280;2024-01-06T12:17:12;53.00;;;30.37;;
6193;SDS011;3130;41.564;23.280;2024-01-06T12:19:41;150.17;;;64.10;;
6193;SDS011;3130;41.564;23.280;2024-01-06T12:22:10;65.70;;;34.30;;
6193;SDS011;3130;41.564;23.280;2024-01-06T12:24:39;154.07;;;65.43;;
6193;SDS011;3130;41.564;23.280;2024-01-06T12:27:07;250.53;;;121.97;;
6193;SDS011;3130;41.564;23.280;2024-01-06T12:29:37;82.77;;;50.03;;
6193;SDS011;3130;41.564;23.280;2024-01-06T12:32:06;74.97;;;39.73;;
6193;SDS011;3130;41.564;23.280;2024-01-06T12:34:34;105.13;;;49.00;;
6193;SDS011;3130;41.564;23.280;2024-01-06T12:37:03;126.20;;;57.23;;
6193;SDS011;3130;41.564;23.280;2024-01-06T12:39:30;30.80;;;19.37;;
6193;SDS011;3130;41.564;23.280;2024-01-06T12:41:58;19.67;;;15.03;;
6193;SDS011;3130;41.564;23.280;2024-01-06T12:44:26;12.50;;;10.20;;
6193;SDS011;3130;41.564;23.280;2024-01-06T12:46:53;14.03;;;8.60;;
6193;SDS011;3130;41.564;23.280;2024-01-06T12:49:21;10.87;;;5.50;;
6193;SDS011;3130;41.564;23.280;2024-01-06T12:51:48;10.77;;;6.63;;
6193;SDS011;3130;41.564;23.280;2024-01-06T12:54:18;9.27;;;4.70;;
6193;SDS011;3130;41.564;23.280;2024-01-06T12:56:45;8.73;;;4.10;;
6193;SDS011;3130;41.564;23.280;2024-01-06T12:59:13;8.03;;;4.87;;
6193;SDS011;3130;41.564;23.280;2024-01-06T13:01:40;12.17;;;7.97;;
6193;SDS011;3130;41.564;23.280;2024-01-06T13:04:08;11.97;;;8.43;;
6193;SDS011;3130;41.564;23.280;2024-01-06T13:06:38;18.33;;;11.93;;
6193;SDS011;3130;41.564;23.280;2024-01-06T13:09:07;16.53;;;10.07;;
6193;SDS011;3130;41.564;23.280;2024-01-06T13:11:39;15.23;;;10.23;;
6193;SDS011;3130;41.564;23.280;2024-01-06T13:14:06;14.90;;;9.40;;
6193;SDS011;3130;41.564;23.280;2024-01-06T13:16:34;17.17;;;10.00;;
6193;SDS011;3130;41.564;23.280;2024-01-06T13:19:01;12.07;;;8.23;;
6193;SDS011;3130;41.564;23.280;2024-01-06T13:21:29;23.80;;;14.13;;
6193;SDS011;3130;41.564;23.280;2024-01-06T13:23:57;17.30;;;9.83;;
6193;SDS011;3130;41.564;23.280;2024-01-06T13:26:27;13.40;;;8.97;;
6193;SDS011;3130;41.564;23.280;2024-01-06T13:28:56;12.30;;;7.80;;
6193;SDS011;3130;41.564;23.280;2024-01-06T13:31:23;13.27;;;8.73;;
6193;SDS011;3130;41.564;23.280;2024-01-06T13:33:51;13.87;;;8.10;;
6193;SDS011;3130;41.564;23.280;2024-01-06T13:36:19;14.60;;;9.03;;
6193;SDS011;3130;41.564;23.280;2024-01-06T13:38:47;16.77;;;9.63;;
6193;SDS011;3130;41.564;23.280;2024-01-06T13:41:14;11.80;;;7.53;;
6193;SDS011;3130;41.564;23.280;2024-01-06T13:43:42;10.27;;;5.40;;
6193;SDS011;3130;41.564;23.280;2024-01-06T13:46:11;5.87;;;3.33;;
6193;SDS011;3130;41.564;23.280;2024-01-06T13:48:39;7.30;;;3.73;;
6193;SDS011;3130;41.564;23.280;2024-01-06T13:51:07;4.40;;;3.07;;
6193;SDS011;3130;41.564;23.280;2024-01-06T13:53:34;6.30;;;3.77;;
6193;SDS011;3130;41.564;23.280;2024-01-06T13:56:02;10.60;;;4.67;;
6193;SDS011;3130;41.564;23.280;2024-01-06T13:58:30;8.47;;;3.33;;
6193;SDS011;3130;41.564;23.280;2024-01-06T14:00:57;7.20;;;3.73;;
6193;SDS011;3130;41.564;23.280;2024-01-06T14:03:26;11.00;;;4.77;;
6193;SDS011;3130;41.564;23.280;2024-01-06T14:05:53;5.87;;;3.97;;
6193;SDS011;3130;41.564;23.280;2024-01-06T14:08:20;6.50;;;4.50;;
6193;SDS011;3130;41.564;23.280;2024-01-06T14:10:47;7.13;;;3.97;;
6193;SDS011;3130;41.564;23.280;2024-01-06T14:13:15;7.80;;;3.83;;
6193;SDS011;3130;41.564;23.280;2024-01-06T14:15:42;11.83;;;4.70;;
6193;SDS011;3130;41.564;23.280;2024-01-06T14:18:10;6.70;;;4.37;;
6193;SDS011;3130;41.564;23.280;2024-01-06T14:20:41;7.23;;;4.63;;
6193;SDS011;3130;41.564;23.280;2024-01-06T14:23:08;7.37;;;4.00;;
6193;SDS011;3130;41.564;23.280;2024-01-06T14:25:36;8.43;;;4.53;;
6193;SDS011;3130;41.564;23.280;2024-01-06T14:28:03;8.53;;;4.50;;
6193;SDS011;3130;41.564;23.280;2024-01-06T14:30:31;9.77;;;5.13;;
6193;SDS011;3130;41.564;23.280;2024-01-06T14:32:58;9.60;;;5.03;;
6193;SDS011;3130;41.564;23.280;2024-01-06T14:35:26;11.83;;;5.17;;
6193;SDS011;3130;41.564;23.280;2024-01-06T14:37:54;9.60;;;5.03;;
6193;SDS011;3130;41.564;23.280;2024-01-06T14:40:22;6.90;;;5.23;;
6193;SDS011;3130;41.564;23.280;2024-01-06T14:42:49;8.93;;;5.10;;
6193;SDS011;3130;41.564;23.280;2024-01-06T14:45:17;9.53;;;5.53;;
6193;SDS011;3130;41.564;23.280;2024-01-06T14:47:44;12.37;;;6.97;;
6193;SDS011;3130;41.564;23.280;2024-01-06T14:50:12;10.57;;;6.13;;
6193;SDS011;3130;41.564;23.280;2024-01-06T14:52:39;9.30;;;5.87;;
6193;SDS011;3130;41.564;23.280;2024-01-06T14:55:08;13.80;;;7.47;;
6193;SDS011;3130;41.564;23.280;2024-01-06T14:57:36;11.33;;;6.53;;